Time;durP1;ratioP1;P1;durP2;ratioP2;P2;SDS_P1;SDS_P2;PMS_P1;PMS_P2;Temp;Humidity;BMP_temperature;BMP_pressure;BME280_temperature;BME280_humidity;BME280_pressure;Samples;Min_cycle;Max_cycle;Signal;HPM_P1;HPM_P2
2021/11/01 00:00:06;;;;;;;23.33;20.23;;;12.30;99.90;;;;;;5031973;28;20794;-46
2021/11/01 00:02:34;;;;;;;26.10;21.07;;;12.30;99.90;;;;;;5032609;28;20426;-46
2021/11/01 00:05:01;;;;;;;22.33;19.63;;;12.40;99.90;;;;;;5032019;28;20801;-47
2021/11/01 00:07:28;;;;;;;22.60;20.30;;;12.70;99.90;;;;;;5031931;28;20614;-46
2021/11/01 00:09:55;;;;;;;23.10;19.67;;;12.30;99.90;;;;;;5013869;28;20474;-47
2021/11/01 00:12:26;;;;;;;22.37;19.73;;;12.50;99.90;;;;;;5014150;28;20489;-48
2021/11/01 00:14:53;;;;;;;25.10;19.83;;;12.20;99.90;;;;;;5031942;28;20440;-48
2021/11/01 00:17:20;;;;;;;23.50;20.57;;;12.20;99.90;;;;;;5032044;28;20443;-47
2021/11/01 00:19:48;;;;;;;23.10;20.37;;;12.20;99.90;;;;;;5032555;28;20468;-47
2021/11/01 00:22:14;;;;;;;22.00;19.03;;;12.40;99.90;;;;;;5033160;28;20445;-47
2021/11/01 00:24:41;;;;;;;24.73;19.97;;;12.30;99.90;;;;;;5032531;28;20437;-47
2021/11/01 00:27:07;;;;;;;25.53;21.33;;;11.70;99.90;;;;;;5031880;28;20434;-48
2021/11/01 00:29:34;;;;;;;23.07;20.57;;;12.10;99.90;;;;;;5031406;28;20454;-47
2021/11/01 00:32:01;;;;;;;23.10;20.70;;;12.10;99.90;;;;;;5031584;28;20476;-46
2021/11/01 00:34:28;;;;;;;21.57;19.10;;;12.10;99.90;;;;;;5031621;28;20521;-46
2021/11/01 00:36:56;;;;;;;19.83;17.73;;;12.50;99.90;;;;;;5031827;28;20433;-46
2021/11/01 00:39:23;;;;;;;23.27;20.27;;;12.00;99.90;;;;;;5031383;28;20486;-47
2021/11/01 00:41:50;;;;;;;22.43;19.33;;;12.00;99.90;;;;;;5031478;28;20943;-47
2021/11/01 00:44:16;;;;;;;22.63;19.97;;;12.00;99.90;;;;;;5031538;28;20438;-46
2021/11/01 00:46:43;;;;;;;25.10;19.80;;;11.90;99.90;;;;;;5031462;28;20812;-46
2021/11/01 00:49:10;;;;;;;22.37;19.37;;;12.00;99.90;;;;;;5031021;28;20456;-47
2021/11/01 00:51:39;;;;;;;22.00;19.70;;;12.10;99.90;;;;;;5031729;28;20471;-46
2021/11/01 00:54:07;;;;;;;23.17;20.50;;;11.90;99.90;;;;;;5031752;28;20433;-47
2021/11/01 00:56:34;;;;;;;23.97;20.53;;;11.80;99.90;;;;;;5031586;28;20445;-47
2021/11/01 00:59:01;;;;;;;22.43;20.03;;;11.90;99.90;;;;;;5031200;28;20782;-47
2021/11/01 01:01:27;;;;;;;25.07;22.47;;;12.30;99.90;;;;;;5031416;28;20430;-47
2021/11/01 01:03:54;;;;;;;23.50;19.87;;;11.80;99.90;;;;;;5031387;28;20950;-48
2021/11/01 01:06:21;;;;;;;24.77;19.27;;;11.70;99.90;;;;;;5031383;28;20450;-47
2021/11/01 01:08:47;;;;;;;23.60;20.23;;;12.20;99.90;;;;;;5032168;28;20488;-48
2021/11/01 01:11:15;;;;;;;25.03;21.80;;;11.80;99.90;;;;;;5035373;28;20445;-47
2021/11/01 01:13:42;;;;;;;22.83;20.30;;;12.20;99.90;;;;;;5035309;28;20408;-47
2021/11/01 01:16:12;;;;;;;26.50;21.60;;;11.80;99.90;;;;;;5035208;28;20477;-47
2021/11/01 01:18:41;;;;;;;23.27;20.77;;;11.80;99.90;;;;;;5035113;28;20564;-47
2021/11/01 01:23:53;;;;;;;25.47;21.10;;;11.50;99.90;;;;;;5035188;28;20429;-47
2021/11/01 01:26:22;;;;;;;24.37;21.70;;;11.60;99.90;;;;;;5017202;28;20455;-46
2021/11/01 01:28:48;;;;;;;26.63;21.90;;;12.00;99.90;;;;;;5034633;28;20495;-47
2021/11/01 01:31:15;;;;;;;22.80;19.27;;;11.70;99.90;;;;;;5035083;28;20455;-47
2021/11/01 01:33:42;;;;;;;26.00;21.30;;;12.10;99.90;;;;;;5016952;28;20422;-47
2021/11/01 01:36:09;;;;;;;27.53;21.20;;;11.30;99.90;;;;;;5035249;28;20765;-46
2021/11/01 01:38:36;;;;;;;27.97;22.77;;;11.60;99.90;;;;;;5036789;28;20503;-46
2021/11/01 01:41:11;;;;;;;22.43;20.03;;;11.60;99.90;;;;;;5035022;28;20452;-47
2021/11/01 01:43:43;;;;;;;25.43;22.47;;;11.70;99.90;;;;;;5034942;28;20444;-47
2021/11/01 01:46:09;;;;;;;26.67;21.97;;;11.60;99.90;;;;;;5034774;28;20444;-48
2021/11/01 01:48:36;;;;;;;26.00;20.13;;;11.30;99.90;;;;;;5034389;28;20462;-46
2021/11/01 01:51:03;;;;;;;25.67;21.67;;;11.60;99.90;;;;;;5034564;28;20434;-46
2021/11/01 01:53:29;;;;;;;24.00;21.40;;;11.50;99.90;;;;;;5034861;28;20453;-47
2021/11/01 01:55:56;;;;;;;24.40;21.80;;;11.10;99.90;;;;;;5034562;28;20438;-47
2021/11/01 01:58:32;;;;;;;27.53;21.37;;;11.50;99.90;;;;;;5034478;28;20847;-46
2021/11/01 02:01:08;;;;;;;23.80;21.30;;;11.50;99.90;;;;;;5016219;28;20422;-46
2021/11/01 02:03:36;;;;;;;22.93;20.40;;;11.60;99.90;;;;;;5016539;28;20448;-47
2021/11/01 02:06:08;;;;;;;25.83;21.80;;;11.50;99.90;;;;;;5034368;28;20543;-46
2021/11/01 02:08:41;;;;;;;25.67;21.03;;;11.50;99.90;;;;;;5033920;28;20495;-47
2021/11/01 02:11:14;;;;;;;25.97;20.77;;;11.50;99.90;;;;;;5034380;28;20434;-48
2021/11/01 02:13:44;;;;;;;24.03;20.67;;;11.50;99.90;;;;;;5034226;28;20521;-47
2021/11/01 02:16:13;;;;;;;24.23;20.23;;;11.40;99.90;;;;;;5034114;28;20490;-47
2021/11/01 02:18:44;;;;;;;24.37;21.00;;;11.40;99.90;;;;;;5033697;28;20480;-46
2021/11/01 02:21:35;;;;;;;23.27;20.77;;;11.40;99.90;;;;;;5032784;28;20479;-46
2021/11/01 02:24:06;;;;;;;23.50;20.70;;;11.50;99.90;;;;;;5034040;28;20433;-46
2021/11/01 02:26:36;;;;;;;27.87;21.47;;;11.40;99.90;;;;;;5033753;28;20417;-47
2021/11/01 02:29:03;;;;;;;25.70;23.00;;;11.40;99.90;;;;;;5033499;28;20498;-48
2021/11/01 02:31:30;;;;;;;23.83;20.97;;;11.30;99.90;;;;;;5033782;28;20418;-46
2021/11/01 02:33:58;;;;;;;26.00;20.83;;;11.40;99.90;;;;;;5033699;28;20440;-46
2021/11/01 02:36:25;;;;;;;25.50;22.80;;;11.50;99.90;;;;;;5033768;28;20437;-48
2021/11/01 02:38:53;;;;;;;24.40;21.77;;;11.90;99.90;;;;;;5015441;28;20474;-47
2021/11/01 02:41:22;;;;;;;24.13;21.50;;;11.40;99.90;;;;;;5015816;28;20444;-47
2021/11/01 02:43:53;;;;;;;24.10;21.60;;;11.40;99.90;;;;;;5033515;28;20440;-47
2021/11/01 02:46:20;;;;;;;24.50;21.50;;;11.40;99.90;;;;;;5033642;28;20432;-47
2021/11/01 02:48:47;;;;;;;24.53;21.93;;;11.40;99.90;;;;;;5033035;28;20465;-47
2021/11/01 02:51:15;;;;;;;24.30;21.57;;;11.30;99.90;;;;;;5033456;28;20444;-47
2021/11/01 02:53:42;;;;;;;24.97;21.47;;;11.40;99.90;;;;;;5033332;28;20581;-47
2021/11/01 02:56:10;;;;;;;28.73;22.73;;;11.30;99.90;;;;;;5035100;28;20445;-47
2021/11/01 02:58:37;;;;;;;25.20;22.50;;;11.30;99.90;;;;;;5033477;28;20550;-47
2021/11/01 03:01:05;;;;;;;25.93;22.53;;;11.00;99.90;;;;;;5015485;28;20542;-46
2021/11/01 03:03:32;;;;;;;24.33;21.80;;;11.30;99.90;;;;;;5033657;28;20429;-46
2021/11/01 03:06:00;;;;;;;26.40;22.03;;;11.30;99.90;;;;;;5033607;28;20789;-46
2021/11/01 03:08:28;;;;;;;24.43;21.73;;;11.30;99.90;;;;;;5033034;28;20968;-46
2021/11/01 03:10:56;;;;;;;28.07;22.20;;;11.00;99.90;;;;;;5033627;28;20505;-49
2021/11/01 03:13:25;;;;;;;27.70;22.40;;;11.30;99.90;;;;;;5034291;28;21053;-47
2021/11/01 03:15:51;;;;;;;24.93;21.10;;;11.20;99.90;;;;;;5033850;28;20416;-48
2021/11/01 03:18:23;;;;;;;27.77;23.40;;;11.30;99.90;;;;;;5032785;28;20424;-47
2021/11/01 03:20:53;;;;;;;28.40;21.73;;;11.10;99.90;;;;;;5033759;28;20452;-46
2021/11/01 03:23:24;;;;;;;25.07;22.40;;;10.80;99.90;;;;;;5033380;28;20436;-47
2021/11/01 03:25:55;;;;;;;28.10;21.97;;;11.20;99.90;;;;;;5033462;28;20432;-46
2021/11/01 03:28:24;;;;;;;25.60;22.30;;;11.20;99.90;;;;;;5032906;28;20480;-46
2021/11/01 03:30:53;;;;;;;28.40;23.40;;;11.20;99.90;;;;;;5032546;28;20537;-47
2021/11/01 03:33:23;;;;;;;29.70;23.90;;;11.20;99.90;;;;;;5032509;28;20478;-47
2021/11/01 03:35:51;;;;;;;26.63;22.43;;;11.20;99.90;;;;;;5032805;28;20448;-47
2021/11/01 03:38:19;;;;;;;25.80;23.07;;;11.10;99.90;;;;;;5032289;28;20527;-47
2021/11/01 03:40:47;;;;;;;26.00;22.10;;;11.20;99.90;;;;;;5032497;28;20440;-47
2021/11/01 03:43:25;;;;;;;28.40;22.80;;;10.70;99.90;;;;;;5032696;28;20439;-47
2021/11/01 03:45:52;;;;;;;26.70;21.57;;;11.00;99.90;;;;;;5032351;28;20454;-46
2021/11/01 03:48:21;;;;;;;26.43;22.60;;;11.10;99.90;;;;;;5032044;28;20442;-46
2021/11/01 03:50:58;;;;;;;25.33;22.63;;;11.20;99.90;;;;;;5032365;28;20435;-48
2021/11/01 03:53:25;;;;;;;29.10;22.97;;;10.80;99.90;;;;;;5032375;28;20487;-46
2021/11/01 03:55:52;;;;;;;24.53;21.93;;;11.20;99.90;;;;;;5032358;28;20801;-45
2021/11/01 03:58:19;;;;;;;25.43;22.80;;;11.10;99.90;;;;;;5031858;28;20454;-47
2021/11/01 04:00:45;;;;;;;26.90;22.53;;;10.90;99.90;;;;;;5032472;28;20560;-46
2021/11/01 04:03:12;;;;;;;24.77;22.07;;;11.30;99.90;;;;;;5032283;28;20428;-47
2021/11/01 04:05:41;;;;;;;25.93;23.17;;;11.00;99.90;;;;;;5032044;28;20436;-45
2021/11/01 04:08:08;;;;;;;31.10;22.57;;;11.10;99.90;;;;;;5031799;28;20445;-47
2021/11/01 04:10:35;;;;;;;30.70;24.57;;;11.00;99.90;;;;;;5032028;28;20830;-47
2021/11/01 04:13:02;;;;;;;32.37;23.40;;;11.00;99.90;;;;;;5032130;28;20487;-45
2021/11/01 04:15:29;;;;;;;27.47;23.43;;;11.00;99.90;;;;;;5033595;28;20433;-47
2021/11/01 04:17:58;;;;;;;28.33;23.33;;;10.80;99.90;;;;;;5031686;28;20452;-47
2021/11/01 04:20:31;;;;;;;28.10;24.70;;;10.80;99.90;;;;;;5032125;28;20471;-46
2021/11/01 04:23:02;;;;;;;25.50;22.80;;;11.10;99.90;;;;;;5032068;28;20435;-48
2021/11/01 04:25:30;;;;;;;30.73;24.70;;;10.60;99.90;;;;;;5031828;28;20439;-47
2021/11/01 04:27:58;;;;;;;25.50;22.80;;;10.90;99.90;;;;;;5031301;28;20790;-48
2021/11/01 04:30:26;;;;;;;25.80;22.40;;;10.90;99.90;;;;;;5031609;28;21052;-47
2021/11/01 04:32:55;;;;;;;27.90;23.67;;;11.00;99.90;;;;;;5031471;28;20519;-46
2021/11/01 04:35:24;;;;;;;27.70;24.57;;;11.00;99.90;;;;;;5031594;28;20440;-47
2021/11/01 04:37:56;;;;;;;28.70;22.50;;;11.00;99.90;;;;;;5013424;28;20463;-47
2021/11/01 04:40:35;;;;;;;29.07;25.20;;;10.90;99.90;;;;;;5031530;28;20448;-46
2021/11/01 04:43:21;;;;;;;30.40;24.00;;;10.90;99.90;;;;;;5030871;28;20487;-47
2021/11/01 04:54:01;;;;;;;27.77;22.90;;;10.90;99.90;;;;;;5031280;28;20523;-47
2021/11/01 04:56:29;;;;;;;26.20;23.23;;;10.90;99.90;;;;;;5031464;28;20448;-47
2021/11/01 04:58:58;;;;;;;28.03;25.03;;;11.10;99.90;;;;;;5030914;28;20782;-47
2021/11/01 05:01:31;;;;;;;31.00;23.17;;;10.90;99.90;;;;;;5031386;28;20522;-45
2021/11/01 05:04:01;;;;;;;29.27;25.17;;;10.80;99.90;;;;;;5031409;28;20857;-46
2021/11/01 05:06:28;;;;;;;29.00;24.33;;;10.80;99.90;;;;;;5031240;28;20838;-47
2021/11/01 05:08:58;;;;;;;27.70;23.60;;;11.00;99.90;;;;;;5030641;28;20467;-46
2021/11/01 05:11:32;;;;;;;27.77;24.87;;;11.10;99.90;;;;;;5013601;28;20539;-48
2021/11/01 05:14:01;;;;;;;26.20;22.90;;;11.20;99.90;;;;;;5031214;28;20851;-46
2021/11/01 05:16:42;;;;;;;30.53;24.33;;;11.00;99.90;;;;;;5030962;28;20435;-47
2021/11/01 05:19:17;;;;;;;28.70;24.30;;;11.00;99.90;;;;;;5030534;28;20482;-47
2021/11/01 05:21:52;;;;;;;40.90;32.23;;;11.00;99.90;;;;;;5031369;28;20439;-48
2021/11/01 05:24:26;;;;;;;31.67;27.90;;;10.90;99.90;;;;;;5031124;28;21028;-47
2021/11/01 05:27:08;;;;;;;26.97;23.80;;;10.90;99.90;;;;;;5030808;28;20931;-47
2021/11/01 05:29:36;;;;;;;28.40;25.30;;;10.90;99.90;;;;;;5030544;28;20468;-47
2021/11/01 05:32:09;;;;;;;32.77;23.97;;;11.40;99.90;;;;;;5031896;28;20427;-46
2021/11/01 05:34:36;;;;;;;35.27;25.43;;;11.00;99.90;;;;;;5032094;28;20478;-46
2021/11/01 05:37:03;;;;;;;31.23;26.93;;;11.30;99.90;;;;;;5031196;28;20438;-46
2021/11/01 05:39:29;;;;;;;27.67;24.13;;;11.30;99.90;;;;;;5030640;28;20452;-46
2021/11/01 05:41:56;;;;;;;28.87;24.03;;;11.30;99.90;;;;;;5030952;28;20446;-46
2021/11/01 05:44:23;;;;;;;32.83;26.40;;;11.50;99.90;;;;;;5031202;28;20428;-47
2021/11/01 05:46:52;;;;;;;36.50;25.33;;;11.30;99.90;;;;;;5030859;28;20440;-48
2021/11/01 05:49:21;;;;;;;28.57;25.47;;;11.30;99.90;;;;;;5030266;28;20525;-47
2021/11/01 05:51:48;;;;;;;27.13;24.17;;;11.30;99.90;;;;;;5030872;28;20441;-47
2021/11/01 05:54:16;;;;;;;30.10;26.27;;;10.90;99.90;;;;;;5031103;28;20541;-45
2021/11/01 05:56:49;;;;;;;28.17;23.97;;;10.90;99.90;;;;;;5034263;28;20456;-47
2021/11/01 05:59:41;;;;;;;28.30;25.03;;;11.40;99.90;;;;;;5033857;28;20460;-46
2021/11/01 06:02:32;;;;;;;30.10;25.20;;;11.20;99.90;;;;;;5016534;28;20426;-46
2021/11/01 06:05:08;;;;;;;29.93;25.30;;;11.30;99.90;;;;;;5033974;28;20938;-46
2021/11/01 06:07:42;;;;;;;28.83;25.70;;;11.60;99.90;;;;;;5033894;28;20531;-48
2021/11/01 06:10:12;;;;;;;30.83;26.20;;;11.10;99.90;;;;;;5015872;28;20503;-47
2021/11/01 06:15:26;;;;;;;32.70;26.67;;;11.60;99.90;;;;;;5033860;28;20447;-47
2021/11/01 06:17:54;;;;;;;31.07;26.13;;;11.30;99.90;;;;;;5033318;28;20475;-47
2021/11/01 06:20:21;;;;;;;30.13;25.33;;;11.70;99.90;;;;;;5033423;28;20542;-47
2021/11/01 06:22:47;;;;;;;30.60;27.27;;;11.70;99.90;;;;;;5033845;28;20449;-48
2021/11/01 06:25:16;;;;;;;30.80;26.70;;;11.60;99.90;;;;;;5033258;28;20461;-49
2021/11/01 06:27:43;;;;;;;30.37;25.97;;;11.70;99.90;;;;;;5033161;28;20445;-47
2021/11/01 06:30:21;;;;;;;30.27;26.30;;;11.70;99.90;;;;;;5033209;28;20551;-48
2021/11/01 06:32:59;;;;;;;33.60;27.87;;;11.70;99.90;;;;;;5033093;28;20475;-48
2021/11/01 06:41:27;;;;;;;32.63;25.40;;;11.80;99.90;;;;;;5033161;28;20425;-47
2021/11/01 06:44:19;;;;;;;34.67;27.50;;;12.30;99.90;;;;;;5032123;28;20455;-47
2021/11/01 06:55:08;;;;;;;32.97;27.80;;;12.00;99.90;;;;;;5031383;28;20480;-47
2021/11/01 06:57:44;;;;;;;34.50;27.87;;;12.00;99.90;;;;;;5032777;28;20764;-48
2021/11/01 07:16:57;;;;;;;32.13;27.80;;;12.20;99.90;;;;;;4952027;29;20477;-48
2021/11/01 07:19:32;;;;;;;32.53;26.37;;;12.30;99.90;;;;;;4951758;29;20474;-46
2021/11/01 07:25:23;;;;;;;29.77;26.30;;;12.30;99.90;;;;;;5032370;28;20787;-47
2021/11/01 08:20:30;;;;;;;34.30;28.40;;;13.10;99.90;;;;;;5013854;28;20834;-47
2021/11/01 08:20:54;;;;;;;35.37;29.50;;;12.70;99.90;;;;;;5031985;28;20487;-48
2021/11/01 08:27:04;;;;;;;36.10;28.40;;;12.80;99.90;;;;;;5031134;28;20445;-48
2021/11/01 08:29:55;;;;;;;32.13;28.17;;;13.00;99.90;;;;;;5030608;28;20489;-48
2021/11/01 08:38:16;;;;;;;34.30;27.50;;;13.20;99.90;;;;;;5031114;28;20425;-47
2021/11/01 08:46:48;;;;;;;35.67;26.10;;;13.10;99.90;;;;;;5030810;28;20485;-47
2021/11/01 09:06:09;;;;;;;39.40;26.73;;;13.60;99.90;;;;;;5030847;28;20434;-48
2021/11/01 09:19:54;;;;;;;31.27;25.27;;;13.80;99.90;;;;;;5029472;28;20475;-47
2021/11/01 09:25:16;;;;;;;28.07;25.07;;;13.70;99.90;;;;;;5031135;28;20519;-47
2021/11/01 09:27:52;;;;;;;33.77;25.90;;;13.90;99.90;;;;;;5031112;28;20459;-47
2021/11/01 09:30:36;;;;;;;25.90;22.13;;;13.90;99.90;;;;;;5033574;28;20478;-47
2021/11/01 09:36:04;;;;;;;27.40;24.57;;;14.00;99.90;;;;;;5034841;28;20531;-48
2021/11/01 09:38:54;;;;;;;31.07;22.90;;;14.00;99.90;;;;;;5034302;28;20450;-48
2021/11/01 09:41:20;;;;;;;26.33;23.50;;;14.00;99.90;;;;;;5034517;28;20461;-47
2021/11/01 09:43:49;;;;;;;28.43;23.93;;;14.00;99.90;;;;;;5034617;28;20505;-47
2021/11/01 09:46:16;;;;;;;36.27;25.87;;;14.10;99.90;;;;;;5034222;28;20439;-47
2021/11/01 09:48:43;;;;;;;26.17;21.97;;;14.60;99.90;;;;;;5033787;28;20523;-48
2021/11/01 09:51:11;;;;;;;28.00;24.23;;;14.10;99.90;;;;;;5034365;28;20534;-47
2021/11/01 09:53:42;;;;;;;28.43;23.30;;;14.30;99.90;;;;;;5034291;28;20570;-46
2021/11/01 09:56:20;;;;;;;24.93;22.33;;;14.40;99.90;;;;;;5034162;28;20529;-48
2021/11/01 10:01:34;;;;;;;24.70;21.77;;;14.30;99.90;;;;;;5034177;28;20947;-47
2021/11/01 10:04:02;;;;;;;30.40;22.90;;;14.50;99.90;;;;;;5034279;28;20443;-47
2021/11/01 10:06:30;;;;;;;29.10;21.63;;;14.60;99.90;;;;;;5034081;28;20446;-47
2021/11/01 10:09:00;;;;;;;25.73;21.63;;;14.60;99.90;;;;;;5033683;28;20426;-48
2021/11/01 10:11:30;;;;;;;25.73;21.90;;;14.40;99.90;;;;;;5033940;28;20796;-47
2021/11/01 10:13:59;;;;;;;25.00;19.80;;;14.40;99.90;;;;;;5033983;28;20478;-47
2021/11/01 10:19:24;;;;;;;27.13;21.57;;;14.50;99.90;;;;;;5068861;22;20493;-51
2021/11/01 10:21:53;;;;;;;26.47;20.97;;;14.70;99.90;;;;;;5073007;28;20897;-50
2021/11/01 10:24:26;;;;;;;30.93;23.23;;;14.00;99.90;;;;;;5073114;28;20523;-50
2021/11/01 10:26:54;;;;;;;28.37;20.67;;;14.70;99.90;;;;;;5072938;28;20924;-51
2021/11/01 10:29:21;;;;;;;25.03;19.90;;;14.90;99.90;;;;;;5072703;28;20508;-50
2021/11/01 10:31:49;;;;;;;29.17;20.03;;;14.70;99.90;;;;;;5072955;28;20467;-51
2021/11/01 10:34:16;;;;;;;23.50;20.80;;;14.50;99.90;;;;;;5073068;28;20481;-51
2021/11/01 10:36:46;;;;;;;29.00;20.70;;;14.50;99.90;;;;;;5073027;28;20495;-51
2021/11/01 10:39:17;;;;;;;24.40;20.13;;;14.50;99.90;;;;;;5072769;28;20560;-51
2021/11/01 10:41:52;;;;;;;25.90;21.00;;;14.50;99.90;;;;;;5071832;28;20764;-50
2021/11/01 10:58:43;;;;;;;23.30;18.77;;;15.00;99.90;;;;;;5072403;28;20805;-51
2021/11/01 11:12:17;;;;;;;21.90;18.08;;;15.20;99.90;;;;;;5071313;28;20410;-50
2021/11/01 11:14:49;;;;;;;21.87;16.57;;;15.40;99.90;;;;;;5072281;28;20218;-51
2021/11/01 11:17:22;;;;;;;23.70;15.50;;;15.40;99.90;;;;;;5072305;28;20518;-50
2021/11/01 11:23:06;;;;;;;26.83;16.37;;;15.30;99.90;;;;;;5071665;28;20466;-51
2021/11/01 11:25:47;;;;;;;19.20;15.57;;;15.50;99.90;;;;;;5072042;28;20471;-51
2021/11/01 11:28:42;;;;;;;22.07;15.50;;;14.80;99.90;;;;;;5071276;28;20509;-50
2021/11/01 11:31:36;;;;;;;18.00;14.27;;;14.90;99.90;;;;;;5071676;28;20438;-51
2021/11/01 11:40:06;;;;;;;17.93;13.60;;;15.20;99.90;;;;;;5070790;28;20469;-53
2021/11/01 11:42:54;;;;;;;19.40;13.23;;;15.20;99.90;;;;;;5066088;28;20442;-52
2021/11/01 11:48:17;;;;;;;16.97;14.57;;;15.00;99.90;;;;;;5059066;28;20445;-52
2021/11/01 11:50:45;;;;;;;16.80;14.00;;;15.10;99.90;;;;;;5071763;28;20515;-51
2021/11/01 11:53:14;;;;;;;19.13;14.30;;;15.60;99.90;;;;;;5071119;28;20430;-52
2021/11/01 11:55:42;;;;;;;24.10;14.53;;;15.20;99.90;;;;;;5071284;28;20492;-52
2021/11/01 11:58:13;;;;;;;21.03;16.57;;;15.20;99.90;;;;;;5069608;28;20442;-52
2021/11/01 12:00:40;;;;;;;24.60;17.07;;;15.10;99.90;;;;;;5071382;28;20958;-52
2021/11/01 12:03:16;;;;;;;19.90;16.13;;;15.20;99.90;;;;;;5071201;28;20433;-51
2021/11/01 12:05:48;;;;;;;23.90;15.60;;;15.20;99.90;;;;;;5070692;28;21012;-51
2021/11/01 12:08:22;;;;;;;21.30;17.33;;;14.90;99.90;;;;;;5071103;28;20809;-51
2021/11/01 12:19:24;;;;;;;22.13;17.60;;;15.50;99.90;;;;;;4989475;28;20476;-51
2021/11/01 12:21:53;;;;;;;18.67;15.80;;;15.30;99.90;;;;;;5035398;28;20930;-51
2021/11/01 12:24:23;;;;;;;21.73;15.93;;;15.00;99.90;;;;;;5071000;28;20525;-51
2021/11/01 12:26:59;;;;;;;24.23;16.17;;;15.10;99.90;;;;;;5070964;28;20445;-51
2021/11/01 12:29:26;;;;;;;21.90;16.67;;;14.80;99.90;;;;;;5070985;28;20842;-51
2021/11/01 12:32:00;;;;;;;20.93;16.17;;;14.70;99.90;;;;;;5070609;28;20511;-49
2021/11/01 12:34:28;;;;;;;21.77;17.10;;;15.10;99.90;;;;;;5071152;28;20857;-50
2021/11/01 12:37:00;;;;;;;25.80;17.10;;;14.90;99.90;;;;;;5071191;28;20501;-51
2021/11/01 12:39:34;;;;;;;17.70;15.80;;;15.20;99.90;;;;;;5070540;28;20488;-51
2021/11/01 12:42:28;;;;;;;24.40;17.10;;;14.90;99.90;;;;;;5070621;28;20982;-50
2021/11/01 12:48:27;;;;;;;22.57;18.40;;;14.90;99.90;;;;;;5008366;28;20953;-53
2021/11/01 12:57:02;;;;;;;20.77;18.23;;;15.20;99.90;;;;;;5049011;28;20962;-52
2021/11/01 12:59:36;;;;;;;19.90;17.17;;;14.90;99.90;;;;;;5049730;28;20455;-52
2021/11/01 13:02:03;;;;;;;23.73;17.63;;;15.00;99.90;;;;;;5050265;28;20438;-51
2021/11/01 13:04:35;;;;;;;24.67;16.50;;;14.90;99.90;;;;;;5052458;28;20433;-51
2021/11/01 13:07:13;;;;;;;23.97;16.47;;;14.70;99.90;;;;;;5074629;28;20430;-51
2021/11/01 13:09:44;;;;;;;17.40;12.97;;;14.80;99.90;;;;;;5074437;28;20451;-51
2021/11/01 13:12:38;;;;;;;17.37;14.43;;;14.50;99.90;;;;;;5074969;28;20476;-50
2021/11/01 13:18:11;;;;;;;15.93;11.73;;;14.80;99.90;;;;;;5073521;28;20499;-52
2021/11/01 13:20:41;;;;;;;14.77;12.77;;;14.60;99.90;;;;;;5074278;28;20523;-52
2021/11/01 13:23:10;;;;;;;14.40;13.00;;;14.70;99.90;;;;;;5074567;28;20829;-51
2021/11/01 13:25:46;;;;;;;17.43;13.80;;;15.10;99.90;;;;;;5074299;28;20639;-51
2021/11/01 13:37:13;;;;;;;15.70;12.97;;;14.70;99.90;;;;;;5074051;28;20940;-51
2021/11/01 13:39:42;;;;;;;14.17;12.17;;;15.10;99.90;;;;;;5074286;28;21008;-51
2021/11/01 13:42:11;;;;;;;19.43;11.83;;;14.80;99.90;;;;;;5074402;28;20426;-52
2021/11/01 13:44:39;;;;;;;16.60;11.47;;;14.70;99.90;;;;;;5074439;28;20459;-51
2021/11/01 13:47:06;;;;;;;18.70;11.03;;;15.00;99.90;;;;;;5074201;28;20426;-51
2021/11/01 13:49:35;;;;;;;12.60;10.70;;;14.60;99.90;;;;;;5073490;28;20465;-51
2021/11/01 13:52:20;;;;;;;13.20;11.13;;;14.60;99.90;;;;;;5073505;28;20437;-51
2021/11/01 13:54:56;;;;;;;10.03;8.40;;;14.30;99.90;;;;;;5073698;28;20480;-50
2021/11/01 13:57:23;;;;;;;15.17;10.00;;;14.70;99.90;;;;;;5073883;28;20472;-50
2021/11/01 13:59:57;;;;;;;11.10;8.20;;;15.30;99.90;;;;;;5073069;28;20450;-51
2021/11/01 14:13:50;;;;;;;8.33;7.07;;;14.10;99.90;;;;;;5045169;28;20446;-51
2021/11/01 14:16:23;;;;;;;8.67;6.77;;;14.70;99.90;;;;;;5073414;28;20508;-51
2021/11/01 14:18:59;;;;;;;11.93;6.40;;;14.40;99.90;;;;;;5072953;28;20457;-52
2021/11/01 14:27:19;;;;;;;9.90;5.57;;;14.30;99.90;;;;;;5073361;28;20429;-53
2021/11/01 14:35:50;;;;;;;9.30;6.20;;;13.90;99.90;;;;;;5073446;28;21154;-52
2021/11/01 14:58:22;;;;;;;13.30;6.03;;;14.30;99.90;;;;;;5072419;28;20231;-50
2021/11/01 15:01:18;;;;;;;9.90;5.20;;;14.50;99.90;;;;;;5072363;28;20464;-51
2021/11/01 15:15:15;;;;;;;11.20;5.07;;;13.60;99.90;;;;;;5061304;28;20485;-50
2021/11/01 15:17:58;;;;;;;7.73;4.60;;;13.90;99.90;;;;;;5071814;28;20447;-52
2021/11/01 15:20:37;;;;;;;5.63;4.30;;;14.30;99.90;;;;;;5071919;28;20559;-52
2021/11/01 15:23:22;;;;;;;7.27;4.93;;;13.80;99.90;;;;;;5072514;28;20425;-53
2021/11/01 15:26:12;;;;;;;8.27;4.13;;;13.70;99.90;;;;;;5072025;28;20505;-52
2021/11/01 15:34:28;;;;;;;12.30;5.30;;;13.40;99.90;;;;;;5069294;28;20446;-52
2021/11/01 16:16:03;;;;;;;8.77;6.60;;;13.80;99.90;;;;;;5070441;28;20825;-53
2021/11/01 16:18:32;;;;;;;10.43;5.80;;;13.50;99.90;;;;;;5071266;28;20449;-51
2021/11/01 16:21:00;;;;;;;7.57;6.30;;;13.50;99.90;;;;;;5082263;22;20498;-47
2021/11/01 16:23:35;;;;;;;11.53;7.13;;;13.50;99.90;;;;;;5070691;28;20767;-48
2021/11/01 16:26:12;;;;;;;12.03;6.10;;;13.20;99.90;;;;;;5070920;28;20913;-47
2021/11/01 16:28:39;;;;;;;9.93;5.50;;;13.60;99.90;;;;;;5070656;28;20916;-49
2021/11/01 16:31:22;;;;;;;11.23;7.30;;;13.50;99.90;;;;;;5059043;28;20470;-47
2021/11/01 16:33:54;;;;;;;8.43;6.50;;;13.30;99.90;;;;;;5050702;28;20564;-47
2021/11/01 16:36:29;;;;;;;8.13;6.10;;;13.50;99.90;;;;;;5051863;28;20567;-47
2021/11/01 16:38:57;;;;;;;9.30;6.37;;;13.60;99.90;;;;;;5050277;28;20429;-48
2021/11/01 16:41:24;;;;;;;10.80;5.73;;;13.50;99.90;;;;;;5051074;28;20442;-48
2021/11/01 16:43:50;;;;;;;8.10;5.50;;;13.40;99.90;;;;;;5050826;28;20438;-47
2021/11/01 16:46:17;;;;;;;7.03;5.60;;;13.60;99.90;;;;;;5051614;28;20554;-48
2021/11/01 16:48:44;;;;;;;7.70;5.37;;;13.30;99.90;;;;;;5050272;28;20439;-48
2021/11/01 16:51:12;;;;;;;10.13;6.30;;;13.40;99.90;;;;;;5050173;28;20963;-47
2021/11/01 16:53:43;;;;;;;11.13;5.80;;;13.40;99.90;;;;;;5052147;28;20942;-48
2021/11/01 16:56:35;;;;;;;7.63;5.63;;;13.40;99.90;;;;;;5071044;28;20517;-48
2021/11/01 16:59:12;;;;;;;6.87;5.50;;;13.40;99.90;;;;;;5070115;28;20437;-50
2021/11/01 17:01:43;;;;;;;8.63;5.17;;;13.30;99.90;;;;;;5070633;28;20809;-48
2021/11/01 17:04:12;;;;;;;9.30;5.40;;;13.30;99.90;;;;;;5071041;28;20784;-48
2021/11/01 17:06:43;;;;;;;9.23;6.00;;;13.30;99.90;;;;;;5064465;28;20451;-49
2021/11/01 17:09:38;;;;;;;8.10;5.60;;;13.30;99.90;;;;;;5050292;28;20457;-47
2021/11/01 17:23:21;;;;;;;10.93;7.33;;;13.50;99.90;;;;;;5051997;28;20461;-49
2021/11/01 17:25:59;;;;;;;11.13;7.43;;;13.40;99.90;;;;;;5051232;28;20786;-49
2021/11/01 17:28:43;;;;;;;8.47;6.97;;;13.30;99.90;;;;;;5050680;28;20444;-48
2021/11/01 17:36:57;;;;;;;8.43;6.73;;;13.00;99.90;;;;;;5051062;28;20465;-47
2021/11/01 18:38:06;;;;;;;8.00;6.47;;;13.20;99.90;;;;;;5050749;28;20997;-49
2021/11/01 18:43:28;;;;;;;7.90;5.67;;;13.30;99.90;;;;;;5047097;28;20457;-48
2021/11/01 18:46:12;;;;;;;8.63;5.63;;;13.00;99.90;;;;;;5053603;28;20464;-47
2021/11/01 18:51:30;;;;;;;6.70;5.70;;;13.30;99.90;;;;;;5053491;28;20567;-48
2021/11/01 18:54:04;;;;;;;6.20;5.27;;;13.00;99.90;;;;;;5053583;28;20521;-47
2021/11/01 18:56:37;;;;;;;7.37;5.30;;;13.20;99.90;;;;;;5052714;28;20543;-48
2021/11/01 18:59:06;;;;;;;5.97;4.87;;;13.20;99.90;;;;;;5052671;28;20441;-49
2021/11/01 19:01:35;;;;;;;7.03;4.70;;;13.00;99.90;;;;;;5052741;28;20937;-47
2021/11/01 19:04:08;;;;;;;5.50;3.93;;;12.80;99.90;;;;;;5052266;28;20443;-48
2021/11/01 19:09:29;;;;;;;5.90;4.63;;;12.60;99.90;;;;;;5052533;28;20874;-47
2021/11/01 20:05:11;;;;;;;7.83;4.53;;;12.50;99.90;;;;;;5052064;28;20460;-50
2021/11/01 20:13:21;;;;;;;8.77;3.97;;;12.80;99.90;;;;;;5051791;28;20949;-50
2021/11/01 21:25:35;;;;;;;5.90;5.23;;;12.80;99.90;;;;;;4990468;28;20438;-50
2021/11/01 21:28:02;;;;;;;8.67;4.10;;;13.00;99.90;;;;;;4993276;28;20444;-51
2021/11/01 21:30:29;;;;;;;6.27;4.20;;;12.50;99.90;;;;;;5020467;28;20476;-50
2021/11/01 21:32:55;;;;;;;5.90;4.30;;;12.50;99.90;;;;;;5055123;28;20443;-48
2021/11/01 21:35:29;;;;;;;5.87;4.50;;;12.50;99.90;;;;;;5054793;28;20524;-49
2021/11/01 21:37:56;;;;;;;8.00;5.00;;;12.40;99.90;;;;;;5054578;28;20470;-49
2021/11/01 21:40:22;;;;;;;6.10;3.80;;;12.60;99.90;;;;;;5054675;28;20461;-48
2021/11/01 21:42:51;;;;;;;6.13;4.07;;;12.50;99.90;;;;;;5054590;28;20440;-50